sensor_id;sensor_type;location;lat;lon;timestamp;pressure;altitude;pressure_sealevel;temperature;humidity
74045;BME280;62389;51.412;5.436;2023-03-16T00:01:38;101701.84;;;4.66;70.01
74045;BME280;62389;51.412;5.436;2023-03-16T00:04:03;101692.34;;;4.68;69.89
74045;BME280;62389;51.412;5.436;2023-03-16T00:06:29;101688.84;;;4.71;71.07
74045;BME280;62389;51.412;5.436;2023-03-16T00:08:54;101692.31;;;4.73;70.58
74045;BME280;62389;51.412;5.436;2023-03-16T00:11:24;101683.66;;;4.74;70.39
74045;BME280;62389;51.412;5.436;2023-03-16T00:13:50;101679.34;;;4.73;70.57
74045;BME280;62389;51.412;5.436;2023-03-16T00:16:15;101680.22;;;4.73;70.23
74045;BME280;62389;51.412;5.436;2023-03-16T00:18:41;101675.03;;;4.73;70.53
74045;BME280;62389;51.412;5.436;2023-03-16T00:21:07;101677.59;;;4.75;70.77
74045;BME280;62389;51.412;5.436;2023-03-16T00:23:34;101670.72;;;4.71;70.37
74045;BME280;62389;51.412;5.436;2023-03-16T00:26:07;101674.19;;;4.66;70.54
74045;BME280;62389;51.412;5.436;2023-03-16T00:28:34;101664.72;;;4.64;71.08
74045;BME280;62389;51.412;5.436;2023-03-16T00:31:04;101663.84;;;4.63;70.36
74045;BME280;62389;51.412;5.436;2023-03-16T00:33:30;101653.50;;;4.63;70.69
74045;BME280;62389;51.412;5.436;2023-03-16T00:36:02;101649.16;;;4.65;70.47
74045;BME280;62389;51.412;5.436;2023-03-16T00:38:31;101656.03;;;4.66;70.97
74045;BME280;62389;51.412;5.436;2023-03-16T00:40:56;101651.75;;;4.65;70.50
74045;BME280;62389;51.412;5.436;2023-03-16T00:43:22;101655.19;;;4.67;70.38
74045;BME280;62389;51.412;5.436;2023-03-16T00:45:47;101653.44;;;4.66;70.56
74045;BME280;62389;51.412;5.436;2023-03-16T00:48:13;101659.50;;;4.65;70.86
74045;BME280;62389;51.412;5.436;2023-03-16T00:50:38;101652.59;;;4.67;70.87
74045;BME280;62389;51.412;5.436;2023-03-16T00:53:04;101643.09;;;4.66;70.68
74045;BME280;62389;51.412;5.436;2023-03-16T00:55:30;101644.84;;;4.67;71.14
74045;BME280;62389;51.412;5.436;2023-03-16T00:57:56;101634.47;;;4.67;71.22
74045;BME280;62389;51.412;5.436;2023-03-16T01:00:22;101633.59;;;4.68;71.41
74045;BME280;62389;51.412;5.436;2023-03-16T01:02:50;101636.19;;;4.68;71.85
74045;BME280;62389;51.412;5.436;2023-03-16T01:05:16;101624.94;;;4.66;71.66
74045;BME280;62389;51.412;5.436;2023-03-16T01:07:41;101629.28;;;4.67;71.79
74045;BME280;62389;51.412;5.436;2023-03-16T01:10:09;101624.09;;;4.67;71.42
74045;BME280;62389;51.412;5.436;2023-03-16T01:12:35;101616.34;;;4.67;72.10
74045;BME280;62389;51.412;5.436;2023-03-16T01:15:00;101613.75;;;4.67;71.60
74045;BME280;62389;51.412;5.436;2023-03-16T01:17:26;101612.00;;;4.65;71.64
74045;BME280;62389;51.412;5.436;2023-03-16T01:19:51;101608.56;;;4.64;71.59
74045;BME280;62389;51.412;5.436;2023-03-16T01:22:17;101612.88;;;4.64;71.98
74045;BME280;62389;51.412;5.436;2023-03-16T01:24:43;101603.38;;;4.66;72.11
74045;BME280;62389;51.412;5.436;2023-03-16T01:27:11;101586.97;;;4.65;71.43
74045;BME280;62389;51.412;5.436;2023-03-16T01:29:37;101588.66;;;4.66;71.80
74045;BME280;62389;51.412;5.436;2023-03-16T01:32:05;101593.00;;;4.66;71.87
74045;BME280;62389;51.412;5.436;2023-03-16T01:34:31;101579.19;;;4.67;71.53
74045;BME280;62389;51.412;5.436;2023-03-16T01:36:57;101571.41;;;4.65;72.31
74045;BME280;62389;51.412;5.436;2023-03-16T01:39:22;101573.16;;;4.65;72.42
74045;BME280;62389;51.412;5.436;2023-03-16T01:41:48;101573.16;;;4.65;72.04
74045;BME280;62389;51.412;5.436;2023-03-16T01:44:20;101567.97;;;4.63;72.33
74045;BME280;62389;51.412;5.436;2023-03-16T01:46:47;101568.00;;;4.60;71.86
74045;BME280;62389;51.412;5.436;2023-03-16T01:49:19;101573.19;;;4.59;72.32
74045;BME280;62389;51.412;5.436;2023-03-16T01:51:53;101572.31;;;4.61;72.31
74045;BME280;62389;51.412;5.436;2023-03-16T01:54:27;101574.88;;;4.61;72.33
74045;BME280;62389;51.412;5.436;2023-03-16T01:59:29;101568.84;;;4.62;72.72
74045;BME280;62389;51.412;5.436;2023-03-16T02:01:56;101567.97;;;4.65;71.55
74045;BME280;62389;51.412;5.436;2023-03-16T02:04:41;101565.34;;;4.68;72.09
74045;BME280;62389;51.412;5.436;2023-03-16T02:07:08;101565.34;;;4.70;71.32
74045;BME280;62389;51.412;5.436;2023-03-16T02:09:36;101565.34;;;4.70;71.21
74045;BME280;62389;51.412;5.436;2023-03-16T02:12:04;101567.06;;;4.71;72.55
74045;BME280;62389;51.412;5.436;2023-03-16T02:14:30;101568.75;;;4.72;71.64
74045;BME280;62389;51.412;5.436;2023-03-16T02:16:56;101567.09;;;4.66;72.95
74045;BME280;62389;51.412;5.436;2023-03-16T02:19:32;101562.88;;;4.53;73.37
74045;BME280;62389;51.412;5.436;2023-03-16T02:22:06;101556.91;;;4.40;74.97
74045;BME280;62389;51.412;5.436;2023-03-16T02:24:33;101564.72;;;4.34;75.17
74045;BME280;62389;51.412;5.436;2023-03-16T02:27:12;101550.13;;;4.27;75.04
74045;BME280;62389;51.412;5.436;2023-03-16T02:30:07;101557.03;;;4.23;74.17
74045;BME280;62389;51.412;5.436;2023-03-16T02:32:35;101554.44;;;4.23;72.91
74045;BME280;62389;51.412;5.436;2023-03-16T02:35:02;101554.41;;;4.25;75.57
74045;BME280;62389;51.412;5.436;2023-03-16T02:37:29;101551.81;;;4.28;76.40
74045;BME280;62389;51.412;5.436;2023-03-16T02:39:58;101550.06;;;4.30;75.56
74045;BME280;62389;51.412;5.436;2023-03-16T02:42:24;101541.41;;;4.34;75.48
74045;BME280;62389;51.412;5.436;2023-03-16T02:44:57;101537.09;;;4.36;75.47
74045;BME280;62389;51.412;5.436;2023-03-16T02:47:32;101531.91;;;4.37;75.03
74045;BME280;62389;51.412;5.436;2023-03-16T02:49:58;101532.75;;;4.39;75.48
74045;BME280;62389;51.412;5.436;2023-03-16T02:52:23;101527.53;;;4.41;75.82
74045;BME280;62389;51.412;5.436;2023-03-16T02:54:48;101537.91;;;4.41;76.02
74045;BME280;62389;51.412;5.436;2023-03-16T02:57:14;101537.91;;;4.41;75.75
74045;BME280;62389;51.412;5.436;2023-03-16T02:59:39;101530.13;;;4.41;75.90
74045;BME280;62389;51.412;5.436;2023-03-16T03:02:05;101526.69;;;4.40;75.13
74045;BME280;62389;51.412;5.436;2023-03-16T03:04:31;101513.75;;;4.39;75.46
74045;BME280;62389;51.412;5.436;2023-03-16T03:06:57;101518.94;;;4.39;76.68
74045;BME280;62389;51.412;5.436;2023-03-16T03:09:28;101515.47;;;4.40;75.80
74045;BME280;62389;51.412;5.436;2023-03-16T03:11:53;101509.44;;;4.43;76.12
74045;BME280;62389;51.412;5.436;2023-03-16T03:14:19;101524.09;;;4.44;75.85
74045;BME280;62389;51.412;5.436;2023-03-16T03:16:44;101518.88;;;4.45;76.05
74045;BME280;62389;51.412;5.436;2023-03-16T03:19:11;101515.41;;;4.46;74.94
74045;BME280;62389;51.412;5.436;2023-03-16T03:21:36;101514.59;;;4.44;74.79
74045;BME280;62389;51.412;5.436;2023-03-16T03:24:02;101516.34;;;4.42;74.88
74045;BME280;62389;51.412;5.436;2023-03-16T03:26:27;101512.00;;;4.43;75.44
74045;BME280;62389;51.412;5.436;2023-03-16T03:28:53;101510.28;;;4.43;75.41
74045;BME280;62389;51.412;5.436;2023-03-16T03:31:21;101515.47;;;4.43;75.20
74045;BME280;62389;51.412;5.436;2023-03-16T03:33:46;101517.16;;;4.46;75.03
74045;BME280;62389;51.412;5.436;2023-03-16T03:36:12;101512.00;;;4.44;75.19
74045;BME280;62389;51.412;5.436;2023-03-16T03:38:38;101514.59;;;4.44;75.21
74045;BME280;62389;51.412;5.436;2023-03-16T03:41:04;101508.53;;;4.45;74.96
74045;BME280;62389;51.412;5.436;2023-03-16T03:43:33;101511.97;;;4.47;75.02
74045;BME280;62389;51.412;5.436;2023-03-16T03:46:00;101511.97;;;4.49;74.25
74045;BME280;62389;51.412;5.436;2023-03-16T03:48:26;101506.75;;;4.50;74.46
74045;BME280;62389;51.412;5.436;2023-03-16T03:50:52;101499.88;;;4.49;74.98
74045;BME280;62389;51.412;5.436;2023-03-16T03:53:18;101505.03;;;4.51;75.29
74045;BME280;62389;51.412;5.436;2023-03-16T03:55:43;101498.97;;;4.52;74.37
74045;BME280;62389;51.412;5.436;2023-03-16T03:58:09;101498.09;;;4.51;74.79
74045;BME280;62389;51.412;5.436;2023-03-16T04:00:34;101503.28;;;4.51;75.00
74045;BME280;62389;51.412;5.436;2023-03-16T04:03:00;101491.22;;;4.50;75.04
74045;BME280;62389;51.412;5.436;2023-03-16T04:05:26;101483.44;;;4.50;75.82
74045;BME280;62389;51.412;5.436;2023-03-16T04:07:54;101473.09;;;4.50;75.31
74045;BME280;62389;51.412;5.436;2023-03-16T04:10:28;101477.38;;;4.51;75.49
74045;BME280;62389;51.412;5.436;2023-03-16T04:12:58;101476.53;;;4.52;74.96
74045;BME280;62389;51.412;5.436;2023-03-16T04:15:24;101476.53;;;4.51;75.18
74045;BME280;62389;51.412;5.436;2023-03-16T04:17:50;101473.94;;;4.52;74.88
74045;BME280;62389;51.412;5.436;2023-03-16T04:20:17;101474.81;;;4.50;74.71
74045;BME280;62389;51.412;5.436;2023-03-16T04:22:46;101475.66;;;4.50;75.41
74045;BME280;62389;51.412;5.436;2023-03-16T04:25:14;101473.06;;;4.52;74.64
74045;BME280;62389;51.412;5.436;2023-03-16T04:27:40;101468.75;;;4.54;75.28
74045;BME280;62389;51.412;5.436;2023-03-16T04:30:08;101468.72;;;4.55;74.68
74045;BME280;62389;51.412;5.436;2023-03-16T04:32:35;101473.03;;;4.58;74.87
74045;BME280;62389;51.412;5.436;2023-03-16T04:35:02;101473.03;;;4.58;74.92
74045;BME280;62389;51.412;5.436;2023-03-16T04:37:27;101473.84;;;4.61;74.06
74045;BME280;62389;51.412;5.436;2023-03-16T04:39:52;101475.59;;;4.62;74.59
74045;BME280;62389;51.412;5.436;2023-03-16T04:42:18;101466.94;;;4.63;74.42
74045;BME280;62389;51.412;5.436;2023-03-16T04:44:43;101467.75;;;4.65;74.11
74045;BME280;62389;51.412;5.436;2023-03-16T04:47:10;101467.75;;;4.65;74.33
74045;BME280;62389;51.412;5.436;2023-03-16T04:49:35;101463.44;;;4.67;74.44
74045;BME280;62389;51.412;5.436;2023-03-16T04:52:01;101461.69;;;4.66;74.60
74045;BME280;62389;51.412;5.436;2023-03-16T04:54:26;101464.31;;;4.65;74.67
74045;BME280;62389;51.412;5.436;2023-03-16T04:56:51;101461.75;;;4.63;74.66
74045;BME280;62389;51.412;5.436;2023-03-16T04:59:17;101460.84;;;4.66;74.42
74045;BME280;62389;51.412;5.436;2023-03-16T05:01:42;101468.63;;;4.67;75.24
74045;BME280;62389;51.412;5.436;2023-03-16T05:04:07;101466.88;;;4.66;74.83
74045;BME280;62389;51.412;5.436;2023-03-16T05:06:33;101460.00;;;4.65;75.09
74045;BME280;62389;51.412;5.436;2023-03-16T05:08:59;101461.75;;;4.63;75.07
74045;BME280;62389;51.412;5.436;2023-03-16T05:11:25;101457.44;;;4.62;75.11
74045;BME280;62389;51.412;5.436;2023-03-16T05:13:50;101449.66;;;4.62;76.22
74045;BME280;62389;51.412;5.436;2023-03-16T05:16:16;101456.56;;;4.63;76.71
74045;BME280;62389;51.412;5.436;2023-03-16T05:18:41;101447.94;;;4.61;75.85
74045;BME280;62389;51.412;5.436;2023-03-16T05:21:07;101445.38;;;4.58;76.34
74045;BME280;62389;51.412;5.436;2023-03-16T05:23:32;101442.78;;;4.58;76.11
74045;BME280;62389;51.412;5.436;2023-03-16T05:25:57;101446.22;;;4.60;76.01
74045;BME280;62389;51.412;5.436;2023-03-16T05:28:26;101443.63;;;4.62;76.10
74045;BME280;62389;51.412;5.436;2023-03-16T05:30:52;101446.19;;;4.65;75.69
74045;BME280;62389;51.412;5.436;2023-03-16T05:33:18;101434.06;;;4.65;76.38
74045;BME280;62389;51.412;5.436;2023-03-16T05:35:43;101428.03;;;4.65;76.27
74045;BME280;62389;51.412;5.436;2023-03-16T05:38:08;101428.91;;;4.65;76.62
74045;BME280;62389;51.412;5.436;2023-03-16T05:40:34;101430.59;;;4.66;75.80
74045;BME280;62389;51.412;5.436;2023-03-16T05:43:01;101425.41;;;4.66;76.44
74045;BME280;62389;51.412;5.436;2023-03-16T05:45:29;101426.31;;;4.67;75.46
74045;BME280;62389;51.412;5.436;2023-03-16T05:47:55;101423.72;;;4.65;76.94
74045;BME280;62389;51.412;5.436;2023-03-16T05:50:20;101415.06;;;4.66;76.85
74045;BME280;62389;51.412;5.436;2023-03-16T05:52:46;101414.19;;;4.66;76.73
74045;BME280;62389;51.412;5.436;2023-03-16T05:55:15;101411.63;;;4.64;76.25
74045;BME280;62389;51.412;5.436;2023-03-16T05:57:40;101409.03;;;4.64;75.89
74045;BME280;62389;51.412;5.436;2023-03-16T06:00:08;101417.66;;;4.66;76.06
74045;BME280;62389;51.412;5.436;2023-03-16T06:02:39;101410.75;;;4.65;76.52
74045;BME280;62389;51.412;5.436;2023-03-16T06:05:04;101415.94;;;4.65;76.09
74045;BME280;62389;51.412;5.436;2023-03-16T06:07:30;101422.00;;;4.64;76.17
74045;BME280;62389;51.412;5.436;2023-03-16T06:09:55;101425.41;;;4.66;75.81
74045;BME280;62389;51.412;5.436;2023-03-16T06:12:20;101414.19;;;4.69;76.31
74045;BME280;62389;51.412;5.436;2023-03-16T06:14:46;101418.47;;;4.72;76.40
74045;BME280;62389;51.412;5.436;2023-03-16T06:17:11;101415.88;;;4.73;75.67
74045;BME280;62389;51.412;5.436;2023-03-16T06:19:36;101417.56;;;4.76;76.10
74045;BME280;62389;51.412;5.436;2023-03-16T06:22:02;101420.16;;;4.76;75.53
74045;BME280;62389;51.412;5.436;2023-03-16T06:24:27;101418.44;;;4.75;76.32
74045;BME280;62389;51.412;5.436;2023-03-16T06:26:53;101417.59;;;4.71;76.75
74045;BME280;62389;51.412;5.436;2023-03-16T06:29:18;101418.59;;;4.62;76.79
74045;BME280;62389;51.412;5.436;2023-03-16T06:31:43;101413.44;;;4.56;77.79
74045;BME280;62389;51.412;5.436;2023-03-16T06:34:09;101403.13;;;4.53;77.28
74045;BME280;62389;51.412;5.436;2023-03-16T06:36:34;101403.19;;;4.47;78.42
74045;BME280;62389;51.412;5.436;2023-03-16T06:38:59;101405.81;;;4.41;78.00
74045;BME280;62389;51.412;5.436;2023-03-16T06:41:25;101404.16;;;4.37;79.49
74045;BME280;62389;51.412;5.436;2023-03-16T06:43:51;101402.41;;;4.36;78.52
74045;BME280;62389;51.412;5.436;2023-03-16T06:46:16;101401.56;;;4.37;80.75
74045;BME280;62389;51.412;5.436;2023-03-16T06:48:42;101405.81;;;4.41;79.12
74045;BME280;62389;51.412;5.436;2023-03-16T06:51:07;101396.25;;;4.49;79.26
74045;BME280;62389;51.412;5.436;2023-03-16T06:53:33;101401.34;;;4.58;78.58
74045;BME280;62389;51.412;5.436;2023-03-16T06:55:58;101397.84;;;4.62;78.96
74045;BME280;62389;51.412;5.436;2023-03-16T06:58:23;101396.91;;;4.66;78.54
74045;BME280;62389;51.412;5.436;2023-03-16T07:00:49;101402.97;;;4.68;78.59
74045;BME280;62389;51.412;5.436;2023-03-16T07:03:14;101402.91;;;4.72;78.14
74045;BME280;62389;51.412;5.436;2023-03-16T07:05:39;101400.31;;;4.73;78.27
74045;BME280;62389;51.412;5.436;2023-03-16T07:08:05;101396.84;;;4.74;77.87
74045;BME280;62389;51.412;5.436;2023-03-16T07:10:30;101399.41;;;4.79;77.82
74045;BME280;62389;51.412;5.436;2023-03-16T07:12:56;101411.41;;;4.86;77.47
74045;BME280;62389;51.412;5.436;2023-03-16T07:15:21;101394.94;;;4.93;76.56
74045;BME280;62389;51.412;5.436;2023-03-16T07:17:49;101400.03;;;4.99;76.97
74045;BME280;62389;51.412;5.436;2023-03-16T07:20:16;101390.47;;;5.04;75.82
74045;BME280;62389;51.412;5.436;2023-03-16T07:22:42;101389.53;;;5.10;76.71
74045;BME280;62389;51.412;5.436;2023-03-16T07:25:08;101384.25;;;5.16;75.24
74045;BME280;62389;51.412;5.436;2023-03-16T07:27:35;101381.59;;;5.20;74.78
74045;BME280;62389;51.412;5.436;2023-03-16T07:30:00;101382.41;;;5.26;74.50
74045;BME280;62389;51.412;5.436;2023-03-16T07:32:26;101381.50;;;5.30;73.91
74045;BME280;62389;51.412;5.436;2023-03-16T07:34:51;101390.06;;;5.35;73.84
74045;BME280;62389;51.412;5.436;2023-03-16T07:37:17;101391.75;;;5.39;73.55
74045;BME280;62389;51.412;5.436;2023-03-16T07:39:43;101396.03;;;5.43;73.45
74045;BME280;62389;51.412;5.436;2023-03-16T07:42:08;101399.41;;;5.48;73.49
74045;BME280;62389;51.412;5.436;2023-03-16T07:44:33;101391.53;;;5.54;73.35
74045;BME280;62389;51.412;5.436;2023-03-16T07:46:59;101392.38;;;5.58;71.91
74045;BME280;62389;51.412;5.436;2023-03-16T07:49:25;101393.16;;;5.61;72.26
74045;BME280;62389;51.412;5.436;2023-03-16T07:51:52;101391.41;;;5.63;72.73
74045;BME280;62389;51.412;5.436;2023-03-16T07:54:17;101389.63;;;5.67;73.01
74045;BME280;62389;51.412;5.436;2023-03-16T07:56:43;101394.75;;;5.73;72.34
74045;BME280;62389;51.412;5.436;2023-03-16T07:59:08;101392.88;;;5.81;71.37
74045;BME280;62389;51.412;5.436;2023-03-16T08:01:33;101399.66;;;5.91;71.06
74045;BME280;62389;51.412;5.436;2023-03-16T08:04:00;101387.41;;;6.01;70.75
74045;BME280;62389;51.412;5.436;2023-03-16T08:06:26;101389.03;;;6.08;71.13
74045;BME280;62389;51.412;5.436;2023-03-16T08:08:52;101387.22;;;6.13;70.06
74045;BME280;62389;51.412;5.436;2023-03-16T08:11:17;101390.59;;;6.18;70.84
74045;BME280;62389;51.412;5.436;2023-03-16T08:13:51;101395.72;;;6.21;69.95
74045;BME280;62389;51.412;5.436;2023-03-16T08:16:21;101393.03;;;6.26;69.81
74045;BME280;62389;51.412;5.436;2023-03-16T08:18:47;101391.22;;;6.31;69.43
74045;BME280;62389;51.412;5.436;2023-03-16T08:21:14;101396.34;;;6.36;69.74
74045;BME280;62389;51.412;5.436;2023-03-16T08:23:41;101390.13;;;6.44;69.31
74045;BME280;62389;51.412;5.436;2023-03-16T08:26:08;101402.13;;;6.52;68.69
74045;BME280;62389;51.412;5.436;2023-03-16T08:28:34;101393.34;;;6.57;68.29
74045;BME280;62389;51.412;5.436;2023-03-16T08:31:00;101399.31;;;6.64;68.34
74045;BME280;62389;51.412;5.436;2023-03-16T08:33:26;101400.00;;;6.73;68.54
74045;BME280;62389;51.412;5.436;2023-03-16T08:35:52;101394.56;;;6.86;68.11
74045;BME280;62389;51.412;5.436;2023-03-16T08:38:17;101388.25;;;6.97;67.77
74045;BME280;62389;51.412;5.436;2023-03-16T08:40:43;101399.47;;;7.01;67.37
74045;BME280;62389;51.412;5.436;2023-03-16T08:43:14;101394.22;;;7.04;67.17
74045;BME280;62389;51.412;5.436;2023-03-16T08:45:39;101392.50;;;7.03;66.07
74045;BME280;62389;51.412;5.436;2023-03-16T08:48:05;101389.94;;;7.00;66.65
74045;BME280;62389;51.412;5.436;2023-03-16T08:50:31;101378.72;;;6.98;66.57
74045;BME280;62389;51.412;5.436;2023-03-16T08:52:57;101383.94;;;6.98;67.60
74045;BME280;62389;51.412;5.436;2023-03-16T08:55:23;101380.53;;;6.94;66.53
74045;BME280;62389;51.412;5.436;2023-03-16T08:57:48;101385.78;;;6.93;66.35
74045;BME280;62389;51.412;5.436;2023-03-16T09:00:14;101383.09;;;6.96;67.70
74045;BME280;62389;51.412;5.436;2023-03-16T09:02:41;101378.63;;;7.03;67.11
74045;BME280;62389;51.412;5.436;2023-03-16T09:05:08;101373.22;;;7.12;66.77
74045;BME280;62389;51.412;5.436;2023-03-16T09:07:34;101372.97;;;7.24;65.93
74045;BME280;62389;51.412;5.436;2023-03-16T09:10:00;101369.25;;;7.36;66.57
74045;BME280;62389;51.412;5.436;2023-03-16T09:12:27;101364.66;;;7.48;65.15
74045;BME280;62389;51.412;5.436;2023-03-16T09:14:52;101370.47;;;7.60;64.05
74045;BME280;62389;51.412;5.436;2023-03-16T09:17:18;101368.34;;;7.75;64.21
74045;BME280;62389;51.412;5.436;2023-03-16T09:19:45;101366.19;;;7.93;65.07
74045;BME280;62389;51.412;5.436;2023-03-16T09:22:11;101363.94;;;8.13;62.69
74045;BME280;62389;51.412;5.436;2023-03-16T09:24:36;101355.06;;;8.87;62.38
74045;BME280;62389;51.412;5.436;2023-03-16T09:27:01;101364.03;;;10.19;58.33
74045;BME280;62389;51.412;5.436;2023-03-16T09:29:27;101360.28;;;11.01;57.71
74045;BME280;62389;51.412;5.436;2023-03-16T09:31:52;101357.19;;;11.36;53.64
74045;BME280;62389;51.412;5.436;2023-03-16T09:34:17;101360.41;;;10.98;54.25
74045;BME280;62389;51.412;5.436;2023-03-16T09:36:43;101358.72;;;10.72;55.41
74045;BME280;62389;51.412;5.436;2023-03-16T09:39:08;101353.69;;;10.42;54.22
74045;BME280;62389;51.412;5.436;2023-03-16T09:41:41;101349.03;;;10.25;55.06
74045;BME280;62389;51.412;5.436;2023-03-16T09:47:00;101356.66;;;10.31;54.40
74045;BME280;62389;51.412;5.436;2023-03-16T09:49:33;101359.91;;;10.11;55.67
74045;BME280;62389;51.412;5.436;2023-03-16T09:57:27;101354.47;;;10.93;54.46
74045;BME280;62389;51.412;5.436;2023-03-16T10:00:09;101336.59;;;12.15;51.77
74045;BME280;62389;51.412;5.436;2023-03-16T10:05:15;101325.72;;;13.40;47.08
74045;BME280;62389;51.412;5.436;2023-03-16T10:12:41;101331.06;;;12.41;50.71
74045;BME280;62389;51.412;5.436;2023-03-16T10:17:42;101306.63;;;12.21;50.54
74045;BME280;62389;51.412;5.436;2023-03-16T10:20:14;101299.41;;;12.26;50.86
74045;BME280;62389;51.412;5.436;2023-03-16T10:22:43;101312.06;;;12.16;49.20
74045;BME280;62389;51.412;5.436;2023-03-16T10:27:39;101304.41;;;11.89;49.54
74045;BME280;62389;51.412;5.436;2023-03-16T10:30:26;101304.91;;;11.77;51.69
74045;BME280;62389;51.412;5.436;2023-03-16T10:32:53;101298.81;;;11.77;50.15
74045;BME280;62389;51.412;5.436;2023-03-16T10:35:47;101305.47;;;11.85;51.78
74045;BME280;62389;51.412;5.436;2023-03-16T10:43:44;101291.59;;;12.04;50.80
74045;BME280;62389;51.412;5.436;2023-03-16T10:46:10;101297.25;;;12.35;50.24
74045;BME280;62389;51.412;5.436;2023-03-16T10:48:37;101291.31;;;12.51;49.65
74045;BME280;62389;51.412;5.436;2023-03-16T10:51:05;101291.03;;;12.57;51.14
74045;BME280;62389;51.412;5.436;2023-03-16T10:53:34;101287.56;;;12.56;49.99
74045;BME280;62389;51.412;5.436;2023-03-16T10:56:08;101291.81;;;12.59;49.99
74045;BME280;62389;51.412;5.436;2023-03-16T10:58:39;101289.41;;;12.73;50.13
74045;BME280;62389;51.412;5.436;2023-03-16T11:01:20;101276.63;;;12.84;50.11
74045;BME280;62389;51.412;5.436;2023-03-16T11:03:55;101277.38;;;12.88;49.27
74045;BME280;62389;51.412;5.436;2023-03-16T11:06:27;101277.72;;;12.80;47.44
74045;BME280;62389;51.412;5.436;2023-03-16T11:09:09;101269.47;;;12.69;49.56
74045;BME280;62389;51.412;5.436;2023-03-16T11:11:37;101268.13;;;12.79;48.77
74045;BME280;62389;51.412;5.436;2023-03-16T11:14:08;101262.75;;;13.01;48.84
74045;BME280;62389;51.412;5.436;2023-03-16T11:19:42;101242.53;;;13.22;48.35
74045;BME280;62389;51.412;5.436;2023-03-16T11:22:15;101244.31;;;13.20;48.14
74045;BME280;62389;51.412;5.436;2023-03-16T11:33:07;101229.72;;;13.14;46.57
74045;BME280;62389;51.412;5.436;2023-03-16T11:35:51;101236.81;;;13.12;47.79
74045;BME280;62389;51.412;5.436;2023-03-16T11:38:47;101234.28;;;13.11;47.94
74045;BME280;62389;51.412;5.436;2023-03-16T11:41:26;101219.72;;;13.04;46.64
74045;BME280;62389;51.412;5.436;2023-03-16T11:43:56;101227.47;;;13.07;46.62
74045;BME280;62389;51.412;5.436;2023-03-16T11:46:32;101220.34;;;13.09;46.13
74045;BME280;62389;51.412;5.436;2023-03-16T11:57:32;101217.69;;;13.10;46.88
74045;BME280;62389;51.412;5.436;2023-03-16T12:06:11;101192.94;;;13.14;46.26
74045;BME280;62389;51.412;5.436;2023-03-16T12:14:41;101179.25;;;13.27;45.66
74045;BME280;62389;51.412;5.436;2023-03-16T12:17:13;101184.13;;;13.34;45.46
74045;BME280;62389;51.412;5.436;2023-03-16T12:19:56;101184.47;;;13.45;46.04
74045;BME280;62389;51.412;5.436;2023-03-16T12:22:31;101194.25;;;13.59;46.64
74045;BME280;62389;51.412;5.436;2023-03-16T12:24:59;101184.50;;;13.79;45.49
74045;BME280;62389;51.412;5.436;2023-03-16T12:27:34;101186.34;;;13.94;46.06
74045;BME280;62389;51.412;5.436;2023-03-16T12:46:48;101131.06;;;14.11;44.60
74045;BME280;62389;51.412;5.436;2023-03-16T12:49:18;101129.94;;;14.15;43.36
74045;BME280;62389;51.412;5.436;2023-03-16T12:51:45;101108.75;;;14.18;43.35
74045;BME280;62389;51.412;5.436;2023-03-16T12:54:20;101107.66;;;14.22;43.45
74045;BME280;62389;51.412;5.436;2023-03-16T12:56:48;101107.75;;;14.37;44.07
74045;BME280;62389;51.412;5.436;2023-03-16T12:59:22;101110.66;;;14.64;41.94
74045;BME280;62389;51.412;5.436;2023-03-16T13:01:50;101097.03;;;14.87;42.23
74045;BME280;62389;51.412;5.436;2023-03-16T13:04:30;101110.53;;;14.97;39.74
74045;BME280;62389;51.412;5.436;2023-03-16T13:07:05;101086.47;;;15.03;42.40
74045;BME280;62389;51.412;5.436;2023-03-16T13:09:35;101095.78;;;15.09;41.13
74045;BME280;62389;51.412;5.436;2023-03-16T13:12:01;101097.50;;;15.10;42.12
74045;BME280;62389;51.412;5.436;2023-03-16T13:17:22;101089.63;;;14.94;43.06
74045;BME280;62389;51.412;5.436;2023-03-16T13:20:22;101075.75;;;15.06;42.06
74045;BME280;62389;51.412;5.436;2023-03-16T13:23:05;101070.03;;;15.14;42.02
74045;BME280;62389;51.412;5.436;2023-03-16T13:25:40;101069.75;;;15.18;42.31
74045;BME280;62389;51.412;5.436;2023-03-16T13:28:12;101069.84;;;15.17;40.86
74045;BME280;62389;51.412;5.436;2023-03-16T13:30:43;101066.44;;;15.15;41.69
74045;BME280;62389;51.412;5.436;2023-03-16T13:33:20;101065.69;;;15.13;41.24
74045;BME280;62389;51.412;5.436;2023-03-16T13:35:48;101061.81;;;15.04;40.24
74045;BME280;62389;51.412;5.436;2023-03-16T13:38:16;101055.13;;;14.98;42.38
74045;BME280;62389;51.412;5.436;2023-03-16T13:40:46;101049.69;;;15.01;40.82
74045;BME280;62389;51.412;5.436;2023-03-16T13:43:18;101048.22;;;15.12;41.66
74045;BME280;62389;51.412;5.436;2023-03-16T13:45:44;101044.25;;;15.19;41.48
74045;BME280;62389;51.412;5.436;2023-03-16T13:48:13;101044.72;;;15.25;42.31
74045;BME280;62389;51.412;5.436;2023-03-16T13:50:39;101044.38;;;15.32;41.81
74045;BME280;62389;51.412;5.436;2023-03-16T13:53:15;101035.53;;;15.33;41.95
74045;BME280;62389;51.412;5.436;2023-03-16T13:55:43;101028.19;;;15.23;41.62
74045;BME280;62389;51.412;5.436;2023-03-16T13:58:25;101017.16;;;15.17;41.70
74045;BME280;62389;51.412;5.436;2023-03-16T14:00:58;101005.09;;;15.13;40.64
74045;BME280;62389;51.412;5.436;2023-03-16T14:03:36;101009.72;;;15.09;42.59
74045;BME280;62389;51.412;5.436;2023-03-16T14:06:03;101004.34;;;15.11;40.29
74045;BME280;62389;51.412;5.436;2023-03-16T14:08:29;101006.06;;;15.12;40.19
74045;BME280;62389;51.412;5.436;2023-03-16T14:10:56;101000.97;;;15.09;40.56
74045;BME280;62389;51.412;5.436;2023-03-16T14:15:48;100999.13;;;14.95;39.53
74045;BME280;62389;51.412;5.436;2023-03-16T14:18:17;100994.97;;;14.91;40.97
74045;BME280;62389;51.412;5.436;2023-03-16T14:20:50;100990.50;;;14.93;40.61
74045;BME280;62389;51.412;5.436;2023-03-16T14:23:17;100976.47;;;14.92;39.98
74045;BME280;62389;51.412;5.436;2023-03-16T14:25:46;100983.81;;;14.87;40.07